Details From KCAE - Columbia Metropolitan
To KCHS - Charleston Afb Intl
Flight Number -
Tags Generated
Created
Modified
Stats Distance 83 nm / 153 km
Max Altitude 0 ft / 0 m
Waypoints 2
Social Downloads 2
Likes 0
Share VATSIM

Download

Looking for another format? Having issues loading an existing format? Contact us
Advertisement - Login to hide

Notes

Generated

Route

KCAE KCHS

ID Type Via Altitude Latitude Longitude Leg Dist Tot Dist Heading (true) Name
O KCAE APT - 0 ft / 0 m 33.92853˚ -81.12397˚ - 0 nm - -
O KCHS APT - 0 ft / 0 m 32.88479˚ -80.04560˚ 82 nm 82 nm 139° / 140° -

Altitude Profile

Advertisement - Login to hide

KCAE

Details ICAO KCAE (CAE)
Name COLUMBIA METROPOLITAN
Region United States
Timezone America/New_York (UTC-5.0)
Stats Elevation 236 ft / 72 m (AMSL)
Location 33.938750° -81.119367°
Runways 2
Magnetic Variation 7.365° W

METAR

KCAE 170956Z 00000KT 8SM SCT250 M02/M03 A3027 RMK AO2 SLP252 T10171033 $

Decode

TAF

KCAE 170836Z 1709/1806 VRB03KT 6SM BR SCT200 FM172000 22005KT P6SM SCT050 BKN100 FM180000 VRB03KT P6SM OVC040

Decode

Departure Runways

ID Width Length Bearing (true) Bearing (mag) Surface Threshold Offset Overrun Length
05 150 ft / 46 m 8,004 ft / 2,440 m 44.52° 51.89° Asphalt 0 ft / 0 m 0 ft / 0 m
11 150 ft / 46 m 8,587 ft / 2,617 m 104.72° 112.09° Asphalt 0 ft / 0 m 0 ft / 0 m
23 150 ft / 46 m 8,004 ft / 2,440 m 224.53° 231.90° Asphalt 1,000 ft / 305 m 0 ft / 0 m
29 150 ft / 46 m 8,587 ft / 2,617 m 284.74° 292.11° Asphalt 0 ft / 0 m 0 ft / 0 m

KCHS

Details ICAO KCHS (CHS)
Name Charleston AFB Intl
Region United States
Timezone America/New_York (UTC-5.0)
Stats Elevation 45 ft / 14 m (AMSL)
Location 32.898080° -80.040556°
Runways 2
Magnetic Variation 7.891° W

METAR

KCHS 170956Z 00000KT 6SM FEW010 00/00 A3028 RMK AO2 SLP253 T00000000

Decode

TAF

TAF KCHS 170531Z 1706/1806 00000KT P6SM MIFG SCT250 TEMPO 1708/1712 5SM MIFG FM171300 VRB03KT P6SM SCT250 FM172300 VRB03KT P6SM SCT030 BKN080

Decode

Destination Runways

ID Width Length Bearing (true) Bearing (mag) Surface Threshold Offset Overrun Length
03 150 ft / 46 m 7,019 ft / 2,140 m 24.30° 32.19° Asphalt 0 ft / 0 m 0 ft / 0 m
15 200 ft / 61 m 9,014 ft / 2,748 m 147.54° 155.43° Concrete 0 ft / 0 m 1,000 ft / 305 m
21 150 ft / 46 m 7,019 ft / 2,140 m 204.31° 212.20° Asphalt 0 ft / 0 m 0 ft / 0 m
33 200 ft / 61 m 9,014 ft / 2,748 m 327.55° 335.44° Concrete 0 ft / 0 m 1,000 ft / 305 m

Approach Navaids

Runway Type Ident Frequency Range Bearing (true) Bearing (mag) Slope Elevation
15 Localiser ICHS 109.70 MHz 18 nm / 33 km 147.54° 155.43° - 26 ft / 8 m (AMSL)
15 Glidescope ICHS 109.70 MHz 10 nm / 19 km 147.54° 155.43° 3.00° 37 ft / 11 m (AMSL)
33 Localiser ICCI 108.90 MHz 18 nm / 33 km 327.53° 335.42° - 44 ft / 13 m (AMSL)
33 Glidescope ICCI 108.90 MHz 10 nm / 19 km 327.54° 335.43° 3.00° 43 ft / 13 m (AMSL)

Popular Alternatives